Time;durP1;ratioP1;P1;durP2;ratioP2;P2;SDS_P1;SDS_P2;PMS_P1;PMS_P2;Temp;Humidity;BMP_temperature;BMP_pressure;BME280_temperature;BME280_humidity;BME280_pressure;Samples;Min_cycle;Max_cycle;Signal;HPM_P1;HPM_P2
2024/01/28 00:01:29;;;;;;;20.70;8.70;;;;;;;0.22;100.00;103313.44;5046906;28;20028;-78
2024/01/28 00:04:15;;;;;;;26.85;8.88;;;;;;;0.23;100.00;103320.41;5048155;28;20087;-78
2024/01/28 00:07:01;;;;;;;17.70;8.55;;;;;;;0.24;100.00;103319.56;5049257;28;20063;-78
2024/01/28 00:09:46;;;;;;;19.98;9.38;;;;;;;0.26;100.00;103307.47;5033464;28;20078;-79
2024/01/28 00:12:32;;;;;;;24.45;8.45;;;;;;;0.27;100.00;103298.81;5033065;28;20044;-79
2024/01/28 00:15:18;;;;;;;20.27;8.27;;;;;;;0.27;100.00;103296.22;5049539;28;20037;-79
2024/01/28 00:18:06;;;;;;;18.92;8.55;;;;;;;0.31;100.00;103305.03;5047256;28;20752;-79
2024/01/28 00:20:52;;;;;;;15.32;7.50;;;;;;;0.31;100.00;103292.91;5047982;28;20092;-79
2024/01/28 00:23:38;;;;;;;18.75;8.35;;;;;;;0.33;100.00;103295.59;5032549;28;20041;-79
2024/01/28 00:26:26;;;;;;;14.65;7.65;;;;;;;0.32;100.00;103305.09;5015666;28;20044;-79
2024/01/28 00:29:12;;;;;;;17.27;7.65;;;;;;;0.33;100.00;103301.66;5045245;28;20037;-79
2024/01/28 00:32:01;;;;;;;19.75;8.38;;;;;;;0.33;100.00;103288.63;5018163;28;20037;-79
2024/01/28 00:34:47;;;;;;;15.82;7.53;;;;;;;0.32;100.00;103289.47;5030362;28;20071;-79
2024/01/28 00:37:36;;;;;;;16.17;7.30;;;;;;;0.33;100.00;103287.75;5031385;28;20055;-79
2024/01/28 00:40:22;;;;;;;16.58;6.93;;;;;;;0.33;100.00;103277.34;5031420;28;20033;-79
2024/01/28 00:43:07;;;;;;;18.60;7.22;;;;;;;0.34;100.00;103285.22;5020594;28;20052;-78
2024/01/28 00:45:53;;;;;;;16.88;7.22;;;;;;;0.35;100.00;103273.06;5047498;28;20090;-79
2024/01/28 00:48:39;;;;;;;13.45;6.93;;;;;;;0.34;100.00;103272.19;5024717;28;20040;-79
2024/01/28 00:51:25;;;;;;;19.92;7.25;;;;;;;0.35;100.00;103276.56;5020568;28;20037;-79
2024/01/28 00:54:11;;;;;;;15.02;6.57;;;;;;;0.35;100.00;103271.34;5047020;28;20041;-79
2024/01/28 00:56:56;;;;;;;17.48;6.75;;;;;;;0.34;100.00;103266.06;5050263;28;20487;-78
2024/01/28 00:59:42;;;;;;;11.82;6.22;;;;;;;0.34;100.00;103264.38;5023583;28;20271;-79
2024/01/28 01:02:28;;;;;;;18.33;7.28;;;;;;;0.34;100.00;103253.94;5053025;28;20155;-79
2024/01/28 01:05:14;;;;;;;14.07;6.75;;;;;;;0.35;100.00;103244.38;5040453;28;20037;-79
2024/01/28 01:07:59;;;;;;;13.18;6.75;;;;;;;0.35;100.00;103250.50;5017773;28;20048;-79
2024/01/28 01:10:45;;;;;;;14.07;6.53;;;;;;;0.35;100.00;103245.28;5053715;28;20148;-79
2024/01/28 01:13:34;;;;;;;10.40;5.68;;;;;;;0.36;100.00;103239.25;5037417;28;20132;-79
2024/01/28 01:16:20;;;;;;;12.10;6.55;;;;;;;0.38;100.00;103234.97;5038724;28;20036;-79
2024/01/28 01:19:09;;;;;;;14.35;6.28;;;;;;;0.38;100.00;103229.75;5026740;28;20075;-78
2024/01/28 01:21:56;;;;;;;15.48;6.30;;;;;;;0.39;100.00;103230.66;5044021;28;20040;-79
2024/01/28 01:24:42;;;;;;;13.07;6.50;;;;;;;0.39;100.00;103221.09;5030148;28;20045;-79
2024/01/28 01:27:28;;;;;;;16.90;6.10;;;;;;;0.40;100.00;103222.84;5031899;28;20400;-79
2024/01/28 01:30:14;;;;;;;11.52;5.75;;;;;;;0.42;100.00;103230.75;5044007;28;20873;-79
2024/01/28 01:33:00;;;;;;;14.73;6.68;;;;;;;0.45;100.00;103240.38;5038623;28;20083;-79
2024/01/28 01:35:46;;;;;;;13.95;6.10;;;;;;;0.45;100.00;103237.78;5025887;28;20425;-79
2024/01/28 01:38:31;;;;;;;13.13;5.93;;;;;;;0.45;100.00;103229.97;5027340;28;20503;-79
2024/01/28 01:41:17;;;;;;;12.85;5.57;;;;;;;0.43;100.00;103227.28;5044344;28;20063;-79
2024/01/28 01:44:03;;;;;;;12.40;6.60;;;;;;;0.44;100.00;103233.41;5039961;28;20036;-80
2024/01/28 01:46:49;;;;;;;15.45;6.65;;;;;;;0.40;100.00;103227.19;5024834;28;20079;-79
2024/01/28 01:49:35;;;;;;;12.43;6.85;;;;;;;0.38;100.00;103221.94;5036266;28;20399;-79
2024/01/28 01:52:21;;;;;;;14.25;7.20;;;;;;;0.36;100.00;103215.78;5037376;28;20131;-79
2024/01/28 01:55:08;;;;;;;12.93;6.70;;;;;;;0.35;100.00;103214.00;5040215;28;20025;-79
2024/01/28 01:57:54;;;;;;;18.20;6.80;;;;;;;0.35;100.00;103214.00;5035603;28;20154;-80
2024/01/28 02:00:40;;;;;;;13.30;5.85;;;;;;;0.35;100.00;103211.41;5014056;28;20040;-79
2024/01/28 02:03:29;;;;;;;13.95;6.05;;;;;;;0.34;100.00;103207.03;5024855;28;20589;-79
2024/01/28 02:06:17;;;;;;;15.73;5.63;;;;;;;0.36;100.00;103202.75;5022225;28;20032;-79
2024/01/28 02:09:06;;;;;;;12.63;5.50;;;;;;;0.36;100.00;103189.72;5030352;28;20048;-79
2024/01/28 02:11:52;;;;;;;13.70;5.50;;;;;;;0.38;100.00;103190.66;5049917;28;20094;-79
2024/01/28 02:14:39;;;;;;;13.07;5.78;;;;;;;0.39;100.00;103183.72;5034444;28;20041;-78
2024/01/28 02:17:25;;;;;;;14.27;5.70;;;;;;;0.39;100.00;103165.47;5023468;28;20102;-79
2024/01/28 02:20:11;;;;;;;12.00;5.43;;;;;;;0.39;100.00;103163.75;5049248;28;20175;-79
2024/01/28 02:23:00;;;;;;;13.23;6.28;;;;;;;0.39;100.00;103163.75;5035333;28;20650;-79
2024/01/28 02:25:46;;;;;;;16.98;6.43;;;;;;;0.40;100.00;103160.28;5037716;28;20120;-79
2024/01/28 02:28:32;;;;;;;11.30;5.32;;;;;;;0.40;100.00;103164.66;5048829;28;20041;-79
2024/01/28 02:31:17;;;;;;;12.55;5.20;;;;;;;0.40;100.00;103175.06;5025349;28;20040;-79
2024/01/28 02:34:04;;;;;;;17.58;6.65;;;;;;;0.39;100.00;103174.16;5051894;28;20028;-79
2024/01/28 02:36:49;;;;;;;10.00;5.75;;;;;;;0.39;100.00;103181.13;5020796;28;20332;-79
2024/01/28 02:39:35;;;;;;;15.75;6.10;;;;;;;0.35;100.00;103177.53;5050966;28;20036;-79
2024/01/28 02:42:21;;;;;;;12.20;5.28;;;;;;;0.36;100.00;103179.28;5050990;28;20562;-79
2024/01/28 02:45:07;;;;;;;11.07;5.25;;;;;;;0.36;100.00;103178.38;5019633;28;20032;-79
2024/01/28 02:47:53;;;;;;;11.07;5.75;;;;;;;0.36;100.00;103178.38;5046702;28;20068;-79
2024/01/28 02:50:39;;;;;;;12.35;4.75;;;;;;;0.33;100.00;103173.09;5034571;28;20025;-79
2024/01/28 02:53:24;;;;;;;12.25;6.00;;;;;;;0.32;100.00;103166.97;5024952;28;20043;-79
2024/01/28 02:56:10;;;;;;;12.15;5.38;;;;;;;0.31;100.00;103167.81;5039114;28;20048;-79
2024/01/28 02:58:56;;;;;;;16.48;5.47;;;;;;;0.30;100.00;103163.44;5019301;28;20036;-79
2024/01/28 03:01:46;;;;;;;12.63;5.28;;;;;;;0.31;100.00;103159.09;5049281;28;20048;-79
2024/01/28 03:04:37;;;;;;;14.40;5.82;;;;;;;0.30;100.00;103153.00;5035689;28;20120;-79
2024/01/28 03:07:23;;;;;;;16.67;5.75;;;;;;;0.31;100.00;103143.47;5047978;28;20028;-79
2024/01/28 03:10:09;;;;;;;11.43;5.90;;;;;;;0.29;100.00;103132.09;5035687;28;20093;-78
2024/01/28 03:12:55;;;;;;;11.75;5.10;;;;;;;0.29;100.00;103135.63;5034237;28;20110;-79
2024/01/28 03:15:41;;;;;;;12.80;5.75;;;;;;;0.30;100.00;103132.16;5049833;28;22027;-79
2024/01/28 03:18:28;;;;;;;14.15;6.43;;;;;;;0.29;100.00;103122.59;5045494;28;20036;-79
2024/01/28 03:21:13;;;;;;;18.15;6.07;;;;;;;0.28;100.00;103118.22;5050070;28;20035;-79
2024/01/28 03:23:59;;;;;;;11.50;6.75;;;;;;;0.24;100.00;103111.09;5024581;28;20040;-79
2024/01/28 03:26:45;;;;;;;17.15;6.05;;;;;;;0.20;100.00;103110.13;5035378;28;20137;-79
2024/01/28 03:29:31;;;;;;;15.90;6.97;;;;;;;0.21;100.00;103121.44;5045781;28;20037;-79
2024/01/28 03:32:16;;;;;;;11.13;6.45;;;;;;;0.19;100.00;103115.25;5032273;28;20050;-79
2024/01/28 03:35:02;;;;;;;16.08;6.53;;;;;;;0.17;100.00;103119.53;5026584;28;20037;-79
2024/01/28 03:37:48;;;;;;;16.63;7.60;;;;;;;0.16;100.00;103128.19;5047645;28;20055;-79
2024/01/28 03:40:34;;;;;;;18.33;6.50;;;;;;;0.15;100.00;103116.88;5037291;28;20041;-79
2024/01/28 03:43:20;;;;;;;16.88;7.43;;;;;;;0.11;100.00;103118.50;5026847;28;20403;-79
2024/01/28 03:46:09;;;;;;;21.67;7.95;;;;;;;0.10;100.00;103124.53;5046760;28;20130;-79
2024/01/28 03:48:55;;;;;;;13.50;7.55;;;;;;;0.08;100.00;103110.59;5031545;28;20710;-79
2024/01/28 03:51:40;;;;;;;15.70;7.40;;;;;;;0.07;100.00;103108.81;5044894;28;20483;-79
2024/01/28 03:54:26;;;;;;;15.85;7.93;;;;;;;0.05;100.00;103105.25;5032523;28;20158;-79
2024/01/28 03:57:12;;;;;;;13.43;7.20;;;;;;;0.05;100.00;103100.03;5004700;28;20037;-79
2024/01/28 03:59:57;;;;;;;14.45;7.47;;;;;;;0.04;100.00;103093.06;5022990;28;21646;-79
2024/01/28 04:02:45;;;;;;;20.63;8.30;;;;;;;0.04;100.00;103093.06;5030029;28;20058;-79
2024/01/28 04:05:32;;;;;;;16.15;8.20;;;;;;;0.03;100.00;103093.91;5043468;28;20158;-79
2024/01/28 04:08:18;;;;;;;19.20;8.48;;;;;;;0.03;100.00;103080.88;5020359;28;20032;-79
2024/01/28 04:11:05;;;;;;;15.73;8.13;;;;;;;0.02;100.00;103079.13;5018904;28;20050;-79
2024/01/28 04:13:55;;;;;;;17.17;7.78;;;;;;;0.02;100.00;103093.84;5033115;28;21651;-79
2024/01/28 04:16:41;;;;;;;16.65;7.32;;;;;;;-0.02;100.00;103087.63;5046697;28;20048;-79
2024/01/28 04:19:27;;;;;;;14.45;7.72;;;;;;;-0.03;100.00;103076.34;5029730;28;20107;-79
2024/01/28 04:22:13;;;;;;;17.67;8.20;;;;;;;-0.03;100.00;103085.88;5029547;28;20040;-79
2024/01/28 04:24:59;;;;;;;14.52;8.07;;;;;;;-0.03;100.00;103081.56;5045388;28;20036;-78
2024/01/28 04:27:44;;;;;;;19.52;8.65;;;;;;;-0.02;100.00;103082.44;5045771;28;20290;-79
2024/01/28 04:30:30;;;;;;;20.48;8.68;;;;;;;-0.03;100.00;103065.03;5031384;28;20566;-79
2024/01/28 04:33:16;;;;;;;15.30;8.50;;;;;;;-0.02;100.00;103069.41;5032179;28;20054;-80
2024/01/28 04:36:02;;;;;;;16.58;8.13;;;;;;;-0.04;100.00;103069.34;5032918;28;20052;-79
2024/01/28 04:38:48;;;;;;;21.00;9.07;;;;;;;-0.04;100.00;103069.34;5031199;28;20037;-79
2024/01/28 04:41:34;;;;;;;16.35;8.70;;;;;;;-0.07;100.00;103063.16;5045602;28;20731;-80
2024/01/28 04:44:20;;;;;;;20.55;8.18;;;;;;;-0.08;100.00;103062.28;5033054;28;20097;-80
2024/01/28 04:47:06;;;;;;;20.02;8.77;;;;;;;-0.11;100.00;103066.50;5031963;28;20411;-79
2024/01/28 04:49:52;;;;;;;16.77;8.27;;;;;;;-0.12;100.00;103057.78;5031711;28;21643;-79
2024/01/28 04:52:37;;;;;;;18.70;9.25;;;;;;;-0.15;100.00;103057.69;5023156;28;20758;-79
2024/01/28 04:55:23;;;;;;;23.83;9.45;;;;;;;-0.18;100.00;103055.88;5033295;28;20052;-79
2024/01/28 04:58:09;;;;;;;13.10;8.02;;;;;;;-0.21;100.00;103041.84;5023343;28;20478;-79
2024/01/28 05:00:57;;;;;;;18.88;8.95;;;;;;;-0.24;100.00;103044.31;5032760;28;20171;-79
2024/01/28 05:03:43;;;;;;;18.52;9.65;;;;;;;-0.31;100.00;103040.63;5033650;28;20041;-79
2024/01/28 05:06:34;;;;;;;24.92;10.52;;;;;;;-0.34;100.00;103044.03;5019418;28;20135;-80
2024/01/28 05:09:20;;;;;;;19.77;9.48;;;;;;;-0.39;100.00;103035.16;5035544;28;20477;-80
2024/01/28 05:12:06;;;;;;;20.58;9.75;;;;;;;-0.39;100.00;103034.28;5008985;28;20033;-80
2024/01/28 05:14:52;;;;;;;17.73;9.00;;;;;;;-0.39;100.00;103039.50;5035715;28;20037;-79
2024/01/28 05:17:37;;;;;;;19.52;8.80;;;;;;;-0.41;100.00;103049.84;5036648;28;20032;-79
2024/01/28 05:20:23;;;;;;;20.17;8.05;;;;;;;-0.43;100.00;103044.56;5022904;28;20507;-80
2024/01/28 05:23:10;;;;;;;20.10;8.93;;;;;;;-0.42;100.00;103048.06;5029729;28;20620;-80
2024/01/28 05:25:57;;;;;;;16.80;8.63;;;;;;;-0.43;100.00;103041.97;5026861;28;20410;-79
2024/01/28 05:28:44;;;;;;;20.50;9.20;;;;;;;-0.44;100.00;103045.41;5029193;28;20041;-80
2024/01/28 05:31:32;;;;;;;17.50;8.73;;;;;;;-0.44;100.00;103037.59;5018556;28;20155;-80
2024/01/28 05:34:18;;;;;;;13.48;8.02;;;;;;;-0.45;100.00;103043.63;5036433;28;20035;-79
2024/01/28 05:37:04;;;;;;;15.48;9.48;;;;;;;-0.46;100.00;103035.75;5043403;28;20037;-80
2024/01/28 05:39:50;;;;;;;14.38;8.75;;;;;;;-0.46;100.00;103041.88;5045309;28;20037;-80
2024/01/28 05:42:36;;;;;;;15.90;9.07;;;;;;;-0.47;100.00;103037.50;5033228;28;20068;-79
2024/01/28 05:45:21;;;;;;;13.68;8.18;;;;;;;-0.48;100.00;103038.31;5035338;28;20080;-80
2024/01/28 05:48:07;;;;;;;17.95;8.63;;;;;;;-0.49;100.00;103038.28;5033800;28;20055;-80
2024/01/28 05:50:53;;;;;;;15.30;8.93;;;;;;;-0.51;100.00;103035.59;5033247;28;20097;-80
2024/01/28 05:53:39;;;;;;;15.75;8.13;;;;;;;-0.52;100.00;103033.84;5048797;28;20062;-80
2024/01/28 05:56:25;;;;;;;16.60;8.48;;;;;;;-0.54;100.00;103022.50;5050886;28;20037;-80
2024/01/28 05:59:11;;;;;;;22.98;9.10;;;;;;;-0.56;100.00;103019.84;5023980;28;20466;-79
2024/01/28 06:01:56;;;;;;;17.15;8.45;;;;;;;-0.57;100.00;103014.56;5019265;28;20493;-80
2024/01/28 06:04:42;;;;;;;14.35;8.48;;;;;;;-0.61;100.00;103018.78;5034370;28;20033;-80
2024/01/28 06:07:28;;;;;;;17.65;8.73;;;;;;;-0.62;100.00;103017.00;5049482;28;20041;-80
2024/01/28 06:10:14;;;;;;;17.38;8.80;;;;;;;-0.64;100.00;103013.47;5048516;28;20112;-79
2024/01/28 06:12:59;;;;;;;12.45;7.90;;;;;;;-0.64;100.00;103017.78;5048991;28;20055;-80
2024/01/28 06:15:45;;;;;;;14.95;8.43;;;;;;;-0.66;100.00;103014.25;5034044;28;20785;-79
2024/01/28 06:18:31;;;;;;;15.75;8.35;;;;;;;-0.69;100.00;103007.22;5051464;28;20033;-79
2024/01/28 06:21:17;;;;;;;15.20;8.68;;;;;;;-0.70;100.00;103010.66;5049004;28;20041;-79
2024/01/28 06:24:03;;;;;;;19.50;9.25;;;;;;;-0.73;100.00;103006.22;5033330;28;20025;-80
2024/01/28 06:26:48;;;;;;;18.33;8.25;;;;;;;-0.76;100.00;103010.41;5047635;28;20517;-79
2024/01/28 06:29:34;;;;;;;13.23;8.48;;;;;;;-0.77;100.00;103014.72;5048393;28;20036;-80
2024/01/28 06:32:22;;;;;;;18.02;8.13;;;;;;;-0.80;100.00;103017.22;5047676;28;20047;-80
2024/01/28 06:35:07;;;;;;;17.77;8.45;;;;;;;-0.84;100.00;103005.81;5035338;28;20067;-80
2024/01/28 06:37:53;;;;;;;20.25;8.85;;;;;;;-0.87;100.00;102999.63;5025554;28;20044;-80
2024/01/28 06:40:39;;;;;;;16.77;8.45;;;;;;;-0.87;100.00;102997.03;5051311;28;20079;-80
2024/01/28 06:43:25;;;;;;;14.48;8.65;;;;;;;-0.89;100.00;102985.66;5036572;28;20940;-79
2024/01/28 06:46:16;;;;;;;17.60;8.80;;;;;;;-0.90;100.00;102983.88;5034679;28;21209;-79
2024/01/28 06:49:03;;;;;;;18.52;9.20;;;;;;;-0.92;100.00;102981.25;5031257;28;20072;-80
2024/01/28 06:51:49;;;;;;;19.98;9.68;;;;;;;-0.92;100.00;102969.94;5016306;28;21081;-80
2024/01/28 06:54:35;;;;;;;21.30;9.63;;;;;;;-0.93;100.00;102973.38;5028520;28;20127;-79
2024/01/28 06:57:20;;;;;;;20.25;9.60;;;;;;;-0.93;100.00;102973.38;5026061;28;20037;-79
2024/01/28 07:00:10;;;;;;;16.10;8.55;;;;;;;-0.96;100.00;102967.22;5029631;28;21444;-80
2024/01/28 07:02:56;;;;;;;18.23;9.63;;;;;;;-0.96;100.00;102966.34;5030421;28;20072;-80
2024/01/28 07:05:41;;;;;;;18.10;8.95;;;;;;;-0.98;100.00;102971.50;5015617;28;20033;-81
2024/01/28 07:08:27;;;;;;;18.88;9.00;;;;;;;-0.99;100.00;102979.22;5031193;28;20037;-80
2024/01/28 07:11:13;;;;;;;19.90;9.63;;;;;;;-1.01;100.00;102987.00;5026107;28;20044;-80
2024/01/28 07:13:59;;;;;;;19.05;9.45;;;;;;;-1.00;100.00;102995.66;5030273;28;20045;-80
2024/01/28 07:16:45;;;;;;;18.25;10.55;;;;;;;-0.99;100.00;102984.44;5017421;28;20068;-80
2024/01/28 07:19:30;;;;;;;20.30;10.05;;;;;;;-0.99;100.00;102985.31;5029008;28;20498;-80
2024/01/28 07:22:17;;;;;;;20.58;9.73;;;;;;;-0.98;100.00;102983.63;5029710;28;20073;-80
2024/01/28 07:25:03;;;;;;;13.82;9.45;;;;;;;-0.97;100.00;102983.66;5030743;28;20056;-80
2024/01/28 07:27:49;;;;;;;19.70;10.18;;;;;;;-0.96;100.00;102984.56;5029889;28;20120;-80
2024/01/28 07:30:35;;;;;;;20.85;9.20;;;;;;;-0.96;100.00;102987.16;5027958;28;21420;-80
2024/01/28 07:33:21;;;;;;;18.67;9.88;;;;;;;-0.95;100.00;102986.31;5029812;28;20059;-80
2024/01/28 07:36:06;;;;;;;18.75;9.60;;;;;;;-0.96;100.00;102995.81;5033632;28;20583;-80
2024/01/28 07:38:53;;;;;;;16.80;9.30;;;;;;;-0.96;100.00;102990.63;5026571;28;20045;-80
2024/01/28 07:41:38;;;;;;;17.15;9.13;;;;;;;-0.94;100.00;102992.44;5027897;28;20037;-80
2024/01/28 07:44:25;;;;;;;17.27;9.23;;;;;;;-0.93;100.00;102976.84;5030070;28;21113;-80
2024/01/28 07:47:11;;;;;;;17.95;9.65;;;;;;;-0.90;100.00;102978.69;5042304;28;20049;-80
2024/01/28 07:49:58;;;;;;;18.27;9.45;;;;;;;-0.87;100.00;102976.22;5030303;28;20045;-80
2024/01/28 07:52:44;;;;;;;15.55;9.85;;;;;;;-0.86;100.00;102967.56;5028281;28;20049;-80
2024/01/28 07:55:30;;;;;;;15.60;9.05;;;;;;;-0.83;100.00;102963.38;5029950;28;20037;-80
2024/01/28 07:58:16;;;;;;;22.30;9.40;;;;;;;-0.82;100.00;102969.44;5033185;28;20547;-80
2024/01/28 08:01:03;;;;;;;17.05;9.13;;;;;;;-0.80;100.00;102965.19;5030570;28;20049;-80
2024/01/28 08:03:53;;;;;;;14.85;8.45;;;;;;;-0.78;100.00;102970.44;5031215;28;20483;-79
2024/01/28 08:06:39;;;;;;;16.30;9.35;;;;;;;-0.75;100.00;102968.84;5026393;28;20045;-80
2024/01/28 08:09:25;;;;;;;17.55;8.80;;;;;;;-0.72;100.00;102974.16;5028236;28;20037;-80
2024/01/28 08:12:10;;;;;;;14.68;8.52;;;;;;;-0.70;100.00;102966.41;5029305;28;20181;-79
2024/01/28 08:14:56;;;;;;;17.17;8.73;;;;;;;-0.68;100.00;102956.94;5031375;28;20169;-81
2024/01/28 08:17:44;;;;;;;20.77;8.55;;;;;;;-0.63;100.00;102962.28;5026786;28;20045;-80
2024/01/28 08:20:29;;;;;;;18.73;8.90;;;;;;;-0.58;100.00;102964.25;5026788;28;20034;-81
2024/01/28 08:23:15;;;;;;;19.40;8.77;;;;;;;-0.56;100.00;102964.28;5029820;28;20033;-80
2024/01/28 08:26:01;;;;;;;19.70;9.13;;;;;;;-0.54;100.00;102952.22;5014993;28;20047;-80
2024/01/28 08:28:47;;;;;;;17.70;8.00;;;;;;;-0.52;100.00;102947.97;5028918;28;20101;-80
2024/01/28 08:31:32;;;;;;;14.27;8.45;;;;;;;-0.49;100.00;102948.03;5001640;28;20045;-80
2024/01/28 08:34:19;;;;;;;15.48;8.18;;;;;;;-0.46;100.00;102945.56;5024540;28;20041;-80
2024/01/28 08:37:05;;;;;;;16.20;8.63;;;;;;;-0.43;100.00;102944.78;5025905;28;20709;-80
2024/01/28 08:39:53;;;;;;;19.65;8.82;;;;;;;-0.37;100.00;102944.09;5012838;28;20049;-80
2024/01/28 08:42:41;;;;;;;17.60;8.10;;;;;;;-0.32;100.00;102945.16;5024387;28;20041;-80
2024/01/28 08:45:29;;;;;;;19.50;7.80;;;;;;;-0.26;100.00;102931.44;5026822;28;20053;-80
2024/01/28 08:48:14;;;;;;;18.58;7.50;;;;;;;-0.18;100.00;102938.69;5034087;28;20061;-80
2024/01/28 08:51:00;;;;;;;15.13;7.63;;;;;;;-0.12;100.00;102930.19;5036742;28;20111;-81
2024/01/28 08:53:46;;;;;;;15.43;7.70;;;;;;;-0.09;100.00;102925.09;5011336;28;20043;-80
2024/01/28 08:56:35;;;;;;;16.55;7.72;;;;;;;0.00;100.00;102929.72;5031582;28;20124;-81
2024/01/28 08:59:26;;;;;;;14.40;6.80;;;;;;;0.07;100.00;102910.84;5034376;28;20039;-80
2024/01/28 09:02:12;;;;;;;14.68;7.60;;;;;;;0.14;100.00;102901.47;5034385;28;20480;-80
2024/01/28 09:04:58;;;;;;;13.50;7.15;;;;;;;0.20;100.00;102890.34;5049452;28;20044;-78
2024/01/28 09:07:45;;;;;;;15.55;7.35;;;;;;;0.27;100.00;102894.91;5049041;28;20415;-79
2024/01/28 09:10:34;;;;;;;14.85;6.65;;;;;;;0.33;100.00;102889.88;5038378;28;20368;-81
2024/01/28 09:13:19;;;;;;;16.70;7.65;;;;;;;0.37;100.00;102891.75;5033048;28;20037;-77
2024/01/28 09:16:05;;;;;;;14.90;6.97;;;;;;;0.42;100.00;102885.81;5050457;28;20045;-81
2024/01/28 09:18:54;;;;;;;17.63;6.63;;;;;;;0.45;100.00;102892.00;5036217;28;20124;-80
2024/01/28 09:21:39;;;;;;;13.32;6.25;;;;;;;0.49;100.00;102887.75;5047946;28;20965;-80
2024/01/28 09:24:25;;;;;;;10.25;6.05;;;;;;;0.52;100.00;102877.41;5049685;28;20097;-80
2024/01/28 09:27:12;;;;;;;12.25;5.97;;;;;;;0.53;100.00;102872.25;5028788;28;20041;-80
2024/01/28 09:29:57;;;;;;;11.40;6.72;;;;;;;0.56;100.00;102871.47;5037974;28;20078;-80
2024/01/28 09:32:43;;;;;;;12.57;5.80;;;;;;;0.60;100.00;102872.44;5055255;28;21603;-80
2024/01/28 09:35:29;;;;;;;10.05;6.15;;;;;;;0.62;100.00;102874.25;5039783;28;20468;-80
2024/01/28 09:38:14;;;;;;;15.40;6.20;;;;;;;0.63;100.00;102876.00;5052832;28;20582;-80
2024/01/28 09:41:38;;;;;;;11.35;5.63;;;;;;;0.66;100.00;102881.28;5051266;28;20052;-80
2024/01/28 09:44:23;;;;;;;10.55;6.05;;;;;;;0.69;100.00;102885.72;5052285;28;20399;-80
2024/01/28 09:47:09;;;;;;;12.25;5.82;;;;;;;0.72;100.00;102879.72;5023871;28;20510;-79
2024/01/28 09:49:56;;;;;;;11.45;5.38;;;;;;;0.76;100.00;102878.97;5051844;28;20048;-79
2024/01/28 09:52:41;;;;;;;12.63;5.70;;;;;;;0.83;100.00;102873.09;5049617;28;20032;-79
2024/01/28 09:55:27;;;;;;;13.45;5.78;;;;;;;0.87;100.00;102869.69;5024219;28;20063;-80
2024/01/28 09:58:13;;;;;;;10.15;5.53;;;;;;;0.94;100.00;102871.63;5051973;28;20032;-79
2024/01/28 10:00:59;;;;;;;10.30;5.97;;;;;;;1.02;100.00;102876.16;5034876;28;20036;-79
2024/01/28 10:03:45;;;;;;;13.02;7.03;;;;;;;1.06;100.00;102865.00;5022978;28;20101;-78
2024/01/28 10:06:31;;;;;;;12.57;6.20;;;;;;;1.13;100.00;102856.47;5024839;28;20049;-78
2024/01/28 10:09:17;;;;;;;9.90;5.28;;;;;;;1.20;100.00;102858.41;5050683;28;20064;-78
2024/01/28 10:12:03;;;;;;;12.75;5.82;;;;;;;1.28;100.00;102861.22;5042082;28;20496;-78
2024/01/28 10:14:50;;;;;;;8.05;5.30;;;;;;;1.35;100.00;102859.63;5050722;28;20032;-78
2024/01/28 10:17:36;;;;;;;9.80;5.13;;;;;;;1.41;100.00;102865.03;5050962;28;20116;-76
2024/01/28 10:20:24;;;;;;;7.35;5.20;;;;;;;1.47;100.00;102862.56;5036820;28;20380;-76
2024/01/28 10:23:09;;;;;;;11.10;5.50;;;;;;;1.57;100.00;102868.91;5038030;28;20036;-76
2024/01/28 10:25:58;;;;;;;11.70;4.97;;;;;;;1.67;100.00;102864.78;5036280;28;20186;-76
2024/01/28 10:28:44;;;;;;;12.10;5.32;;;;;;;1.73;100.00;102853.59;5035737;28;20029;-78
2024/01/28 10:31:30;;;;;;;8.77;5.03;;;;;;;1.79;100.00;102861.59;5036779;28;20144;-77
2024/01/28 10:34:16;;;;;;;12.52;5.20;;;;;;;1.87;100.00;102856.53;5050362;28;20037;-78
2024/01/28 10:37:15;;;;;;;12.75;5.25;;;;;;;1.94;100.00;102860.16;5031912;28;20047;-76
2024/01/28 10:40:08;;;;;;;11.18;6.10;;;;;;;1.99;100.00;102849.00;5029695;28;20055;-77
2024/01/28 10:42:56;;;;;;;;;;;;;;;2.07;100.00;102846.53;5035168;28;20094;-76
2024/01/28 10:45:43;;;;;;;11.23;5.47;;;;;;;2.15;100.00;102842.38;5038966;28;19927;-77
2024/01/28 10:48:29;;;;;;;9.77;4.60;;;;;;;2.25;100.00;102837.34;5044541;28;20044;-76
2024/01/28 10:51:14;;;;;;;7.80;4.10;;;;;;;2.28;100.00;102838.28;5046478;28;20040;-77
2024/01/28 10:54:04;;;;;;;10.63;5.30;;;;;;;2.32;100.00;102828.78;5047518;28;20063;-78
2024/01/28 10:56:53;;;;;;;9.10;5.00;;;;;;;2.38;100.00;102846.31;5035617;28;20425;-78
2024/01/28 10:59:39;;;;;;;6.65;4.18;;;;;;;2.39;100.00;102830.66;5031877;28;20103;-77
2024/01/28 11:02:27;;;;;;;9.65;4.50;;;;;;;2.42;100.00;102825.53;5045177;28;20691;-78
2024/01/28 11:05:13;;;;;;;9.93;4.70;;;;;;;2.49;100.00;102823.91;5043350;28;20071;-77
2024/01/28 11:08:01;;;;;;;13.15;4.95;;;;;;;2.52;100.00;102816.13;5043170;28;20047;-78
2024/01/28 11:10:47;;;;;;;10.68;4.97;;;;;;;2.57;100.00;102819.69;5047849;28;20091;-79
2024/01/28 11:13:33;;;;;;;9.48;4.78;;;;;;;2.64;100.00;102819.81;5046696;28;20467;-76
2024/01/28 11:16:19;;;;;;;9.90;4.57;;;;;;;2.68;100.00;102826.88;5030917;28;20516;-76
2024/01/28 11:19:06;;;;;;;7.53;4.45;;;;;;;2.72;100.00;102826.97;5033791;28;20040;-77
2024/01/28 11:21:52;;;;;;;9.55;4.68;;;;;;;2.74;100.00;102827.00;5038810;28;20036;-76
2024/01/28 11:25:08;;;;;;;7.68;4.38;;;;;;;2.79;100.00;102812.25;5039268;28;20044;-76
2024/01/28 11:28:07;;;;;;;9.18;4.63;;;;;;;2.87;100.00;102806.31;5030673;28;20041;-77
2024/01/28 11:30:57;;;;;;;8.25;4.70;;;;;;;2.91;100.00;102806.41;5034896;28;20055;-77
2024/01/28 11:33:46;;;;;;;7.55;4.32;;;;;;;2.94;100.00;102793.34;5044996;28;20051;-76
2024/01/28 11:36:32;;;;;;;7.70;4.60;;;;;;;2.99;100.00;102799.56;5034272;28;20526;-77
2024/01/28 11:39:33;;;;;;;8.10;4.60;;;;;;;3.04;100.00;102783.06;5028181;28;20045;-78
2024/01/28 11:42:19;;;;;;;7.93;3.95;;;;;;;3.06;100.00;102781.34;5045866;28;20499;-77
2024/01/28 11:45:05;;;;;;;7.57;4.80;;;;;;;3.10;100.00;102776.19;5029650;28;20047;-77
2024/01/28 11:47:51;;;;;;;5.85;3.60;;;;;;;3.16;100.00;102788.47;5005168;28;20041;-75
2024/01/28 11:50:38;;;;;;;9.13;4.47;;;;;;;3.21;100.00;102785.97;5042730;28;20068;-78
2024/01/28 11:53:24;;;;;;;7.50;4.38;;;;;;;3.25;100.00;102772.94;5045944;28;20029;-75
2024/01/28 11:56:10;;;;;;;8.95;5.00;;;;;;;3.32;100.00;102775.66;5024524;28;20115;-76
2024/01/28 11:59:00;;;;;;;9.20;4.07;;;;;;;3.37;100.00;102772.25;5030466;28;20047;-77
2024/01/28 12:01:46;;;;;;;5.93;3.65;;;;;;;3.40;100.00;102767.03;5030413;28;20043;-76
2024/01/28 12:04:34;;;;;;;9.05;3.88;;;;;;;3.46;100.00;102766.28;5035674;28;20041;-76
2024/01/28 12:07:21;;;;;;;9.25;4.05;;;;;;;3.50;100.00;102761.97;5028984;28;20609;-77
2024/01/28 12:10:12;;;;;;;8.02;3.88;;;;;;;3.55;100.00;102755.06;5031865;28;20040;-75
2024/01/28 12:12:59;;;;;;;6.82;3.92;;;;;;;3.60;100.00;102752.50;5026805;28;20036;-75
2024/01/28 12:15:45;;;;;;;8.68;3.85;;;;;;;3.64;100.00;102733.34;5043871;28;20040;-76
2024/01/28 12:18:38;;;;;;;9.43;4.05;;;;;;;3.70;100.00;102736.03;5028992;28;20032;-76
2024/01/28 12:21:26;;;;;;;8.50;4.45;;;;;;;3.73;100.00;102736.09;5043127;28;20036;-76
2024/01/28 12:24:11;;;;;;;7.20;3.95;;;;;;;3.77;100.00;102722.16;5030118;28;20370;-76
2024/01/28 12:26:57;;;;;;;7.07;4.00;;;;;;;3.83;100.00;102724.00;5030479;28;20036;-77
2024/01/28 12:29:43;;;;;;;7.55;4.25;;;;;;;3.87;100.00;102715.31;5032792;28;20709;-76
2024/01/28 12:32:29;;;;;;;9.43;4.10;;;;;;;3.89;100.00;102710.97;5014453;28;20049;-76
2024/01/28 12:35:15;;;;;;;9.73;3.97;;;;;;;3.90;100.00;102699.63;5044916;28;20146;-74
2024/01/28 12:38:01;;;;;;;6.15;3.72;;;;;;;3.93;100.00;102702.28;5046097;28;20056;-75
2024/01/28 12:40:47;;;;;;;8.23;3.63;;;;;;;4.00;100.00;102699.75;5029959;28;20068;-76
2024/01/28 12:43:33;;;;;;;6.38;4.03;;;;;;;4.06;100.00;102682.34;5032586;28;20419;-77
2024/01/28 12:46:19;;;;;;;9.65;3.53;;;;;;;4.11;100.00;102682.41;5033349;28;20040;-76